createdAt,value
2017-10-29T00:00:35.241Z,12.90
2017-10-29T00:03:02.728Z,17.37
2017-10-29T00:05:30.209Z,13.53
2017-10-29T00:07:57.689Z,16.07
2017-10-29T00:10:25.175Z,18.33
2017-10-29T00:12:52.630Z,13.30
2017-10-29T00:15:20.114Z,22.30
2017-10-29T00:17:47.579Z,16.70
2017-10-29T00:20:15.052Z,21.10
2017-10-29T00:22:42.510Z,20.73
2017-10-29T00:25:10.552Z,14.87
2017-10-29T00:27:38.019Z,17.07
2017-10-29T00:30:05.509Z,19.40
2017-10-29T00:32:32.965Z,19.30
2017-10-29T00:35:00.441Z,14.97
2017-10-29T00:37:27.921Z,14.80
2017-10-29T00:39:56.145Z,11.80
2017-10-29T00:42:24.377Z,11.97
2017-10-29T00:44:52.613Z,12.47
2017-10-29T00:47:20.103Z,21.30
2017-10-29T00:49:48.332Z,17.80
2017-10-29T00:52:15.872Z,15.77
2017-10-29T00:54:43.356Z,17.63
2017-10-29T00:57:11.033Z,13.77
2017-10-29T00:59:38.591Z,21.50
2017-10-29T01:02:06.134Z,13.23
2017-10-29T01:04:33.616Z,16.97
2017-10-29T01:07:01.097Z,14.03
2017-10-29T01:09:29.453Z,19.20
2017-10-29T01:11:56.939Z,17.30
2017-10-29T01:14:25.181Z,17.17
2017-10-29T01:16:52.646Z,13.87
2017-10-29T01:19:20.109Z,11.13
2017-10-29T01:21:48.493Z,12.40
2017-10-29T01:24:16.761Z,11.70
2017-10-29T01:26:44.211Z,12.87
2017-10-29T01:29:11.685Z,22.00
2017-10-29T01:31:41.386Z,10.47
2017-10-29T01:34:09.609Z,12.30
2017-10-29T01:36:37.101Z,10.27
2017-10-29T01:39:04.549Z,14.07
2017-10-29T01:41:32.043Z,12.70
2017-10-29T01:44:00.284Z,8.00
2017-10-29T01:46:27.749Z,14.57
2017-10-29T01:48:55.235Z,10.00
2017-10-29T01:51:22.730Z,7.57
2017-10-29T01:53:50.193Z,15.20
2017-10-29T01:56:17.687Z,8.70
2017-10-29T01:58:45.917Z,10.70
2017-10-29T02:01:13.407Z,15.03
2017-10-29T02:03:40.857Z,11.90
2017-10-29T02:06:08.334Z,8.10
2017-10-29T02:08:35.829Z,8.27
2017-10-29T02:11:03.436Z,7.20
2017-10-29T02:13:31.689Z,10.30
2017-10-29T02:15:59.154Z,8.47
2017-10-29T02:18:26.630Z,9.03
2017-10-29T02:20:54.601Z,13.77
2017-10-29T02:23:22.091Z,6.73
2017-10-29T02:25:49.562Z,8.27
2017-10-29T02:28:17.046Z,10.33
2017-10-29T02:30:44.502Z,9.13
2017-10-29T02:33:11.981Z,7.63
2017-10-29T02:35:39.447Z,10.17
2017-10-29T02:38:07.702Z,6.03
2017-10-29T02:40:35.178Z,5.33
2017-10-29T02:43:02.636Z,11.63
2017-10-29T02:45:30.117Z,14.03
2017-10-29T02:47:57.581Z,13.27
2017-10-29T02:50:25.066Z,9.80
2017-10-29T02:52:52.538Z,11.07
2017-10-29T02:55:20.139Z,7.40
2017-10-29T02:57:48.357Z,9.47
2017-10-29T03:00:15.841Z,9.00
2017-10-29T03:02:43.302Z,10.07
2017-10-29T03:05:10.761Z,8.37
2017-10-29T03:07:38.241Z,7.33
2017-10-29T03:10:06.469Z,6.30
2017-10-29T03:12:33.954Z,6.70
2017-10-29T03:15:02.181Z,8.40
2017-10-29T03:17:29.885Z,6.70
2017-10-29T03:19:57.355Z,9.83
2017-10-29T03:22:25.598Z,7.13
2017-10-29T03:24:53.055Z,6.60
2017-10-29T03:27:20.596Z,7.57
2017-10-29T03:29:48.071Z,7.33
2017-10-29T03:32:15.525Z,4.90
2017-10-29T03:34:43.121Z,11.73
2017-10-29T03:37:11.341Z,4.80
2017-10-29T03:39:38.814Z,9.03
2017-10-29T03:42:06.280Z,4.43
2017-10-29T03:44:33.758Z,7.97
2017-10-29T03:47:01.226Z,5.53
2017-10-29T03:49:28.689Z,3.10
2017-10-29T03:51:57.047Z,4.07
2017-10-29T03:54:25.314Z,5.77
2017-10-29T03:56:54.305Z,4.10
2017-10-29T03:59:21.771Z,6.40
2017-10-29T04:01:49.253Z,5.87
2017-10-29T04:04:17.477Z,6.10
2017-10-29T04:06:44.977Z,5.63
2017-10-29T04:09:13.187Z,9.43
2017-10-29T04:11:40.660Z,11.97
2017-10-29T04:14:08.245Z,5.27
2017-10-29T04:16:35.818Z,7.17
2017-10-29T04:19:04.040Z,6.03
2017-10-29T04:21:31.521Z,10.17
2017-10-29T04:23:58.986Z,6.13
2017-10-29T04:26:26.470Z,12.20
2017-10-29T04:28:54.699Z,10.33
2017-10-29T04:31:22.271Z,9.20
2017-10-29T04:33:49.796Z,8.67
2017-10-29T04:36:17.320Z,7.30
2017-10-29T04:38:45.581Z,6.63
2017-10-29T04:41:13.046Z,6.17
2017-10-29T04:43:41.295Z,3.90
2017-10-29T04:46:08.742Z,7.17
2017-10-29T04:48:36.324Z,6.27
2017-10-29T04:51:03.788Z,7.27
2017-10-29T04:53:31.268Z,7.97
2017-10-29T04:55:58.755Z,6.07
2017-10-29T04:58:26.222Z,10.30
2017-10-29T05:00:53.705Z,12.27
2017-10-29T05:03:21.174Z,11.80
2017-10-29T05:05:48.654Z,7.20
2017-10-29T05:08:16.888Z,13.00
2017-10-29T05:10:44.350Z,6.73
2017-10-29T05:13:11.914Z,10.20
2017-10-29T05:15:39.877Z,12.30
2017-10-29T05:18:07.394Z,12.70
2017-10-29T05:20:35.004Z,20.07
2017-10-29T05:23:02.678Z,13.77
2017-10-29T05:25:30.953Z,17.23
2017-10-29T05:27:59.170Z,10.80
2017-10-29T05:30:26.649Z,16.73
2017-10-29T05:32:54.129Z,13.43
2017-10-29T05:35:21.593Z,14.20
2017-10-29T05:37:49.133Z,14.17
2017-10-29T05:40:16.617Z,14.20
2017-10-29T05:42:44.869Z,10.50
2017-10-29T05:45:12.387Z,9.70
2017-10-29T05:47:39.855Z,19.00
2017-10-29T05:50:07.336Z,20.57
2017-10-29T05:52:34.792Z,19.30
2017-10-29T05:55:02.277Z,18.37
2017-10-29T05:57:30.513Z,17.20
2017-10-29T05:59:58.501Z,17.50
2017-10-29T06:02:26.144Z,17.00
2017-10-29T06:04:53.644Z,18.67
2017-10-29T06:07:21.887Z,22.83
2017-10-29T06:09:49.349Z,26.17
2017-10-29T06:12:16.837Z,16.40
2017-10-29T06:14:45.588Z,27.47
2017-10-29T06:17:13.058Z,21.73
2017-10-29T06:19:40.532Z,22.80
2017-10-29T06:22:08.761Z,20.43
2017-10-29T06:24:36.238Z,15.67
2017-10-29T06:27:05.225Z,20.47
2017-10-29T06:29:32.714Z,14.30
2017-10-29T06:32:00.949Z,15.87
2017-10-29T06:34:28.416Z,27.57
2017-10-29T06:36:55.907Z,26.50
2017-10-29T06:39:24.164Z,20.57
2017-10-29T06:41:52.426Z,20.60
2017-10-29T06:44:19.897Z,24.23
2017-10-29T06:46:47.377Z,27.73
2017-10-29T06:49:14.832Z,22.63
2017-10-29T06:51:42.327Z,32.57
2017-10-29T06:54:09.797Z,23.70
2017-10-29T06:56:37.276Z,21.40
2017-10-29T06:59:04.733Z,23.20
2017-10-29T07:01:32.221Z,27.53
2017-10-29T07:03:59.814Z,38.97
2017-10-29T07:06:27.283Z,20.93
2017-10-29T07:08:54.772Z,22.63
2017-10-29T07:11:23.070Z,26.23
2017-10-29T07:13:51.313Z,26.23
2017-10-29T07:16:18.779Z,34.80
2017-10-29T07:18:46.249Z,23.03
2017-10-29T07:21:14.986Z,31.03
2017-10-29T07:23:42.473Z,21.03
2017-10-29T07:26:09.928Z,24.63
2017-10-29T07:28:37.406Z,28.90
2017-10-29T07:31:05.657Z,29.00
2017-10-29T07:33:33.163Z,25.87
2017-10-29T07:36:00.627Z,19.47
2017-10-29T07:38:28.108Z,28.27
2017-10-29T07:40:55.585Z,23.80
2017-10-29T07:43:23.046Z,25.23
2017-10-29T07:45:50.533Z,41.50
2017-10-29T07:48:18.753Z,21.93
2017-10-29T07:50:46.253Z,25.13
2017-10-29T07:53:14.495Z,30.23
2017-10-29T07:55:41.966Z,24.87
2017-10-29T07:58:09.525Z,26.27
2017-10-29T08:00:36.998Z,30.97
2017-10-29T08:03:05.334Z,27.10
2017-10-29T08:05:32.822Z,32.97
2017-10-29T08:08:00.346Z,23.00
2017-10-29T08:10:27.795Z,31.70
2017-10-29T08:12:55.285Z,31.57
2017-10-29T08:15:22.953Z,43.17
2017-10-29T08:17:50.428Z,30.70
2017-10-29T08:20:18.657Z,22.93
2017-10-29T08:22:46.161Z,25.07
2017-10-29T08:25:14.391Z,32.30
2017-10-29T08:27:41.912Z,26.70
2017-10-29T08:30:09.402Z,26.67
2017-10-29T08:32:36.885Z,39.53
2017-10-29T08:35:04.367Z,28.83
2017-10-29T08:37:32.629Z,34.57
2017-10-29T08:40:00.098Z,24.07
2017-10-29T08:42:28.356Z,24.03
2017-10-29T08:44:55.833Z,31.30
2017-10-29T08:47:24.090Z,23.13
2017-10-29T08:49:52.421Z,34.00
2017-10-29T08:52:19.948Z,29.63
2017-10-29T08:54:48.192Z,23.67
2017-10-29T08:57:15.678Z,23.70
2017-10-29T08:59:43.994Z,31.03
2017-10-29T09:02:11.495Z,20.53
2017-10-29T09:04:39.776Z,31.17
2017-10-29T09:07:08.028Z,25.50
2017-10-29T09:09:35.507Z,22.47
2017-10-29T09:12:03.840Z,21.33
2017-10-29T09:14:31.312Z,27.60
2017-10-29T09:16:58.802Z,32.87
2017-10-29T09:19:27.057Z,31.03
2017-10-29T09:21:54.538Z,28.93
2017-10-29T09:24:22.765Z,30.30
2017-10-29T09:26:50.237Z,27.60
2017-10-29T09:29:17.730Z,24.00
2017-10-29T09:31:45.990Z,37.90
2017-10-29T09:34:13.452Z,19.27
2017-10-29T09:36:41.902Z,29.20
2017-10-29T09:39:09.516Z,26.57
2017-10-29T09:41:36.959Z,24.67
2017-10-29T09:44:05.184Z,21.60
2017-10-29T09:46:32.646Z,23.20
2017-10-29T09:49:00.414Z,27.73
2017-10-29T09:51:27.945Z,24.97
2017-10-29T09:53:55.401Z,28.83
2017-10-29T09:56:22.893Z,18.57
2017-10-29T09:58:50.357Z,29.80
2017-10-29T10:01:17.829Z,24.87
2017-10-29T10:03:46.093Z,29.33
2017-10-29T10:06:13.549Z,23.77
2017-10-29T10:08:41.071Z,18.27
2017-10-29T10:11:08.538Z,19.13
2017-10-29T10:13:36.024Z,21.03
2017-10-29T10:16:03.485Z,33.67
2017-10-29T10:18:31.715Z,20.87
2017-10-29T10:20:59.206Z,30.07
2017-10-29T10:23:27.289Z,30.10
2017-10-29T10:25:55.560Z,20.17
2017-10-29T10:28:23.024Z,31.03
2017-10-29T10:30:51.297Z,19.47
2017-10-29T10:33:18.774Z,20.30
2017-10-29T10:35:47.029Z,17.57
2017-10-29T10:38:14.649Z,25.33
2017-10-29T10:40:42.121Z,25.80
2017-10-29T10:43:09.788Z,24.43
2017-10-29T10:45:37.249Z,21.90
2017-10-29T10:48:05.511Z,17.63
2017-10-29T10:50:32.972Z,15.43
2017-10-29T10:53:01.223Z,17.10
2017-10-29T10:55:28.702Z,17.27
2017-10-29T10:57:56.182Z,21.63
2017-10-29T11:00:24.442Z,14.40
2017-10-29T11:02:52.101Z,20.73
2017-10-29T11:05:19.573Z,12.67
2017-10-29T11:07:47.034Z,20.10
2017-10-29T11:10:15.613Z,18.97
2017-10-29T11:12:43.192Z,10.80
2017-10-29T11:15:11.547Z,33.27
2017-10-29T11:17:39.022Z,20.50
2017-10-29T11:20:07.264Z,14.60
2017-10-29T11:22:34.750Z,10.80
2017-10-29T11:25:02.976Z,16.60
2017-10-29T11:27:30.458Z,19.67
2017-10-29T11:29:57.912Z,9.10
2017-10-29T11:32:25.431Z,13.70
2017-10-29T11:34:52.892Z,15.93
2017-10-29T11:37:20.435Z,11.60
2017-10-29T11:39:48.671Z,18.20
2017-10-29T11:42:17.685Z,13.17
2017-10-29T11:44:45.933Z,9.67
2017-10-29T11:47:13.409Z,12.20
2017-10-29T11:49:41.649Z,12.53
2017-10-29T11:52:09.145Z,6.70
2017-10-29T11:54:36.631Z,11.03
2017-10-29T11:57:04.109Z,10.00
2017-10-29T11:59:31.604Z,13.03
2017-10-29T12:01:59.848Z,16.77
2017-10-29T12:04:27.310Z,18.50
2017-10-29T12:06:54.801Z,13.87
2017-10-29T12:09:22.270Z,11.73
2017-10-29T12:11:50.524Z,13.33
2017-10-29T12:14:18.749Z,10.17
2017-10-29T12:16:46.409Z,11.10
2017-10-29T12:19:13.880Z,15.07
2017-10-29T12:21:41.345Z,10.00
2017-10-29T12:24:08.895Z,11.23
2017-10-29T12:26:36.357Z,14.80
2017-10-29T12:29:03.866Z,10.47
2017-10-29T12:31:32.101Z,6.30
2017-10-29T12:33:59.681Z,8.03
2017-10-29T12:36:28.656Z,11.60
2017-10-29T12:38:56.922Z,7.30
2017-10-29T12:41:24.451Z,10.07
2017-10-29T12:43:51.920Z,10.23
2017-10-29T12:46:19.422Z,13.67
2017-10-29T12:48:47.657Z,11.90
2017-10-29T12:51:15.142Z,11.17
2017-10-29T12:53:42.783Z,8.63
2017-10-29T12:56:10.370Z,11.67
2017-10-29T12:58:38.655Z,8.00
2017-10-29T13:01:06.915Z,11.33
2017-10-29T13:03:34.388Z,18.20
2017-10-29T13:06:03.344Z,16.20
2017-10-29T13:08:30.881Z,13.33
2017-10-29T13:10:58.346Z,10.40
2017-10-29T13:13:25.802Z,11.77
2017-10-29T13:15:53.361Z,12.13
2017-10-29T13:18:20.846Z,15.27
2017-10-29T13:20:48.512Z,18.77
2017-10-29T13:23:15.966Z,8.07
2017-10-29T13:25:43.466Z,8.93
2017-10-29T13:28:11.689Z,11.63
2017-10-29T13:30:39.166Z,5.63
2017-10-29T13:33:06.630Z,8.60
2017-10-29T13:35:34.111Z,11.30
2017-10-29T13:38:02.408Z,9.43
2017-10-29T13:40:29.894Z,9.13
2017-10-29T13:42:57.379Z,7.80
2017-10-29T13:45:24.840Z,8.77
2017-10-29T13:47:53.091Z,10.67
2017-10-29T13:50:20.544Z,18.83
2017-10-29T13:52:48.028Z,12.83
2017-10-29T13:55:15.492Z,10.17
2017-10-29T13:57:43.748Z,11.93
2017-10-29T14:00:11.219Z,12.40
2017-10-29T14:02:40.178Z,9.87
2017-10-29T14:05:07.661Z,14.97
2017-10-29T14:07:35.133Z,13.10
2017-10-29T14:10:03.492Z,12.37
2017-10-29T14:12:31.721Z,13.17
2017-10-29T14:14:59.216Z,14.90
2017-10-29T14:17:26.698Z,17.07
2017-10-29T14:19:54.928Z,18.33
2017-10-29T14:22:22.420Z,10.53
2017-10-29T14:24:50.662Z,13.50
2017-10-29T14:27:18.151Z,18.07
2017-10-29T14:29:45.619Z,16.23
2017-10-29T14:32:13.865Z,12.40
2017-10-29T14:34:41.334Z,16.07
2017-10-29T14:37:08.821Z,8.70
2017-10-29T14:39:36.282Z,10.03
2017-10-29T14:42:03.741Z,14.07
2017-10-29T14:44:31.239Z,12.47
2017-10-29T14:46:58.707Z,12.83
2017-10-29T14:49:26.172Z,11.97
2017-10-29T14:51:53.670Z,10.10
2017-10-29T14:54:21.169Z,14.60
2017-10-29T14:56:48.694Z,12.63
2017-10-29T14:59:16.187Z,18.70
2017-10-29T15:01:43.641Z,18.60
2017-10-29T15:04:11.122Z,14.57
2017-10-29T15:06:39.345Z,13.17
2017-10-29T15:09:06.828Z,16.87
2017-10-29T15:11:34.305Z,17.63
2017-10-29T15:14:02.639Z,15.43
2017-10-29T15:16:30.126Z,14.93
2017-10-29T15:18:57.613Z,16.47
2017-10-29T15:21:25.953Z,17.77
2017-10-29T15:23:53.422Z,16.43
2017-10-29T15:26:20.978Z,12.00
2017-10-29T15:28:48.445Z,13.63
2017-10-29T15:31:17.457Z,13.63
2017-10-29T15:33:45.701Z,10.23
2017-10-29T15:36:13.181Z,18.57
2017-10-29T15:38:41.417Z,12.83
2017-10-29T15:41:09.479Z,12.37
2017-10-29T15:43:36.966Z,18.43
2017-10-29T15:46:04.442Z,18.53
2017-10-29T15:48:31.936Z,14.37
2017-10-29T15:50:59.432Z,15.83
2017-10-29T15:53:26.932Z,20.07
2017-10-29T15:55:55.243Z,12.87
2017-10-29T15:58:22.730Z,24.30
2017-10-29T16:00:50.303Z,18.90
2017-10-29T16:03:18.542Z,18.27
2017-10-29T16:05:46.037Z,14.23
2017-10-29T16:08:15.017Z,16.07
2017-10-29T16:10:42.522Z,12.10
2017-10-29T16:13:10.134Z,15.03
2017-10-29T16:15:37.723Z,7.73
2017-10-29T16:18:05.993Z,18.93
2017-10-29T16:20:34.371Z,13.70
2017-10-29T16:23:02.739Z,14.30
2017-10-29T16:25:30.206Z,22.00
2017-10-29T16:27:58.466Z,17.03
2017-10-29T16:30:25.934Z,16.87
2017-10-29T16:32:54.190Z,16.60
2017-10-29T16:35:22.355Z,13.80
2017-10-29T16:37:49.846Z,12.73
2017-10-29T16:40:18.080Z,11.63
2017-10-29T16:42:45.583Z,15.93
2017-10-29T16:45:13.893Z,10.27
2017-10-29T16:47:41.383Z,23.70
2017-10-29T16:50:09.014Z,17.07
2017-10-29T16:52:36.469Z,15.87
2017-10-29T16:55:03.957Z,17.63
2017-10-29T16:57:31.429Z,13.93
2017-10-29T16:59:59.049Z,18.67
2017-10-29T17:02:26.534Z,14.07
2017-10-29T17:04:54.034Z,14.73
2017-10-29T17:07:21.498Z,16.70
2017-10-29T17:09:48.993Z,11.93
2017-10-29T17:12:16.461Z,15.00
2017-10-29T17:14:43.957Z,18.27
2017-10-29T17:17:11.568Z,15.33
2017-10-29T17:19:39.043Z,14.03
2017-10-29T17:22:06.530Z,15.80
2017-10-29T17:24:34.756Z,15.50
2017-10-29T17:27:02.243Z,13.17
2017-10-29T17:29:30.571Z,17.43
2017-10-29T17:31:58.111Z,16.63
2017-10-29T17:34:25.726Z,11.87
2017-10-29T17:36:53.358Z,13.63
2017-10-29T17:39:20.838Z,19.00
2017-10-29T17:41:48.330Z,15.73
2017-10-29T17:44:16.565Z,17.80
2017-10-29T17:46:44.016Z,16.63
2017-10-29T17:49:11.586Z,18.63
2017-10-29T17:51:39.058Z,17.47
2017-10-29T17:54:07.398Z,24.43
2017-10-29T17:56:34.861Z,22.20
2017-10-29T17:59:02.355Z,13.07
2017-10-29T18:01:30.591Z,14.93
2017-10-29T18:03:58.078Z,14.57
2017-10-29T18:06:26.104Z,19.73
2017-10-29T18:08:53.604Z,16.73
2017-10-29T18:11:21.074Z,19.63
2017-10-29T18:13:49.436Z,11.77
2017-10-29T18:16:16.988Z,15.87
2017-10-29T18:18:44.485Z,18.90
2017-10-29T18:21:11.965Z,24.57
2017-10-29T18:23:40.174Z,19.40
2017-10-29T18:26:07.631Z,13.17
2017-10-29T18:28:35.138Z,18.80
2017-10-29T18:31:02.625Z,16.37
2017-10-29T18:33:30.173Z,23.50
2017-10-29T18:35:57.656Z,22.77
2017-10-29T18:38:25.120Z,20.43
2017-10-29T18:40:52.601Z,14.87
2017-10-29T18:43:20.863Z,20.20
2017-10-29T18:45:49.115Z,15.70
2017-10-29T18:48:17.093Z,21.40
2017-10-29T18:50:44.552Z,20.17
2017-10-29T18:53:12.029Z,16.63
2017-10-29T18:55:40.281Z,19.60
2017-10-29T18:58:07.750Z,19.47
2017-10-29T19:00:35.212Z,17.33
2017-10-29T19:03:02.688Z,20.93
2017-10-29T19:05:30.953Z,22.20
2017-10-29T19:07:59.209Z,15.37
2017-10-29T19:10:26.662Z,17.83
2017-10-29T19:12:54.252Z,17.93
2017-10-29T19:15:22.527Z,20.40
2017-10-29T19:17:50.808Z,28.47
2017-10-29T19:20:18.294Z,19.73
2017-10-29T19:22:45.749Z,15.43
2017-10-29T19:25:13.237Z,18.67
2017-10-29T19:27:40.716Z,21.33
2017-10-29T19:30:08.990Z,22.70
2017-10-29T19:32:37.226Z,17.23
2017-10-29T19:35:04.670Z,18.53
2017-10-29T19:37:32.230Z,23.60
2017-10-29T19:39:59.694Z,22.77
2017-10-29T19:42:27.244Z,25.93
2017-10-29T19:44:54.703Z,28.70
2017-10-29T19:47:22.244Z,19.53
2017-10-29T19:49:49.716Z,24.60
2017-10-29T19:52:17.201Z,23.97
2017-10-29T19:54:44.686Z,11.83
2017-10-29T19:57:12.158Z,19.50
2017-10-29T19:59:40.395Z,23.77
2017-10-29T20:02:07.870Z,16.33
2017-10-29T20:04:35.334Z,14.43
2017-10-29T20:07:03.560Z,20.83
2017-10-29T20:09:31.032Z,18.47
2017-10-29T20:11:58.809Z,18.13
2017-10-29T20:14:26.273Z,18.47
2017-10-29T20:16:53.754Z,16.97
2017-10-29T20:19:22.003Z,17.10
2017-10-29T20:21:49.485Z,17.53
2017-10-29T20:24:17.726Z,18.23
2017-10-29T20:26:45.210Z,21.73
2017-10-29T20:29:13.455Z,13.70
2017-10-29T20:31:40.912Z,22.33
2017-10-29T20:34:08.363Z,12.30
2017-10-29T20:36:35.838Z,22.00
2017-10-29T20:39:03.335Z,24.20
2017-10-29T20:41:30.828Z,24.73
2017-10-29T20:43:58.289Z,16.83
2017-10-29T20:46:25.799Z,16.10
2017-10-29T20:48:53.254Z,20.47
2017-10-29T20:51:21.516Z,14.13
2017-10-29T20:53:49.760Z,22.53
2017-10-29T20:56:17.337Z,15.27
2017-10-29T20:58:44.806Z,16.30
2017-10-29T21:01:13.046Z,14.50
2017-10-29T21:03:40.509Z,13.13
2017-10-29T21:06:07.995Z,20.77
2017-10-29T21:08:36.109Z,20.77
2017-10-29T21:11:03.688Z,16.17
2017-10-29T21:13:31.150Z,20.80
2017-10-29T21:15:58.615Z,17.70
2017-10-29T21:18:26.174Z,15.23
2017-10-29T21:20:53.743Z,12.63
2017-10-29T21:23:21.266Z,16.47
2017-10-29T21:25:48.817Z,26.43
2017-10-29T21:28:16.382Z,20.60
2017-10-29T21:30:43.853Z,19.53
2017-10-29T21:33:11.330Z,26.83
2017-10-29T21:35:38.788Z,24.30
2017-10-29T21:38:06.268Z,17.60
2017-10-29T21:40:34.529Z,25.57
2017-10-29T21:43:02.002Z,14.83
2017-10-29T21:45:30.247Z,22.17
2017-10-29T21:47:57.706Z,18.60
2017-10-29T21:50:25.419Z,21.33
2017-10-29T21:52:52.905Z,19.90
2017-10-29T21:55:20.483Z,12.87
2017-10-29T21:57:49.449Z,14.43
2017-10-29T22:00:16.941Z,14.57
2017-10-29T22:02:45.153Z,17.57
2017-10-29T22:05:12.629Z,19.80
2017-10-29T22:07:41.075Z,27.40
2017-10-29T22:10:09.405Z,23.87
2017-10-29T22:12:36.869Z,15.50
2017-10-29T22:15:04.473Z,16.03
2017-10-29T22:17:32.717Z,17.57
2017-10-29T22:20:00.184Z,17.77
2017-10-29T22:22:27.665Z,19.00
2017-10-29T22:24:55.153Z,20.17
2017-10-29T22:27:22.690Z,20.47
2017-10-29T22:29:51.081Z,19.43
2017-10-29T22:32:18.693Z,17.67
2017-10-29T22:34:46.182Z,19.40
2017-10-29T22:37:13.666Z,19.13
2017-10-29T22:39:41.162Z,17.23
2017-10-29T22:42:09.026Z,18.13
2017-10-29T22:44:36.507Z,20.00
2017-10-29T22:47:04.758Z,16.37
2017-10-29T22:49:32.309Z,15.30
2017-10-29T22:51:59.765Z,19.07
2017-10-29T22:54:27.262Z,16.73
2017-10-29T22:56:55.556Z,13.53
2017-10-29T22:59:23.019Z,15.97
2017-10-29T23:01:50.518Z,15.10
2017-10-29T23:04:17.992Z,17.43
2017-10-29T23:06:47.062Z,22.03
2017-10-29T23:09:22.453Z,18.67
2017-10-29T23:11:49.944Z,14.70
2017-10-29T23:14:17.417Z,20.90
2017-10-29T23:16:44.922Z,22.00
2017-10-29T23:19:12.378Z,18.20
2017-10-29T23:21:39.878Z,16.30
2017-10-29T23:24:07.351Z,17.60
2017-10-29T23:26:36.352Z,13.47
2017-10-29T23:29:03.831Z,11.40
2017-10-29T23:31:32.070Z,17.10
2017-10-29T23:33:59.548Z,13.33
2017-10-29T23:36:27.796Z,22.53
2017-10-29T23:38:55.374Z,14.70
2017-10-29T23:41:22.829Z,17.83
2017-10-29T23:43:50.474Z,14.80
2017-10-29T23:46:17.938Z,13.33
2017-10-29T23:48:45.418Z,18.63
2017-10-29T23:51:12.876Z,11.10
2017-10-29T23:53:41.146Z,20.50
2017-10-29T23:56:08.767Z,21.67
2017-10-29T23:58:36.243Z,13.67
